Manila Express — VRCX7 — position and weather

sailwx.info

Track history (hours):
 
Tides and Currents Weather Stations Pressure Air Temp Water Temp Dewpoint Dewpoint Depression Visibility Wind Speed Wind Dir Waves Ship Positions

Manila Express

Last reported at 2017-Oct-20 21:42 UTC. Time now 2017-Oct-23 08:06 UTC.
Position N 01°15' E 104°03'.

Length 260 m; draft 8.4 m.

Type: Cargo ship. MMSI: 477830800.

Date/timePositionNaut miles runAvg speedWind from/ knotsBaromVisibWave heightAir tempDewpointWater temp
2017-Oct-20 21:42N 01°15' E 104°03'419.1
2017-Oct-20 21:30N 01°14' E 103°59'918.2
2017-Oct-20 21:00N 01°11' E 103°50'4 8.1
2017-Oct-20 20:30N 01°13' E 103°47'2 4.1
2017-Oct-20 19:55N 01°16' E 103°47'0 0.0
2017-Oct-20 19:25N 01°16' E 103°47'0 0.0
2017-Oct-20 18:58N 01°16' E 103°47'0 0.0
2017-Oct-20 18:28N 01°16' E 103°47'0 0.0
2017-Oct-20 17:58N 01°16' E 103°47'0 0.0
2017-Oct-20 17:22N 01°16' E 103°47'0 0.0
2017-Oct-20 16:58N 01°16' E 103°47'0 0.0
2017-Oct-20 16:28N 01°16' E 103°47'0 0.0
2017-Oct-20 15:55N 01°16' E 103°47'0 0.0
2017-Oct-20 15:25N 01°16' E 103°47'0 0.0
2017-Oct-20 14:58N 01°16' E 103°47'0 0.0
2017-Oct-20 14:25N 01°16' E 103°47'0 0.0
2017-Oct-20 13:19N 01°16' E 103°47'0 0.0
2017-Oct-20 12:46N 01°16' E 103°47'0 0.0
2017-Oct-20 12:28N 01°16' E 103°47'0 0.0
2017-Oct-20 11:58N 01°16' E 103°47'0 0.0
2017-Oct-20 11:25N 01°16' E 103°47'0 0.9
2017-Oct-20 10:59N 01°15' E 103°48'1 2.1
2017-Oct-20 10:30N 01°15' E 103°47'3 6.3
2017-Oct-20 10:00N 01°14' E 103°44'5 9.5
2017-Oct-20 09:30N 01°12' E 103°40'3 6.7
2017-Oct-20 08:59N 01°13' E 103°36'2 3.6
2017-Oct-20 08:30N 01°12' E 103°35'4 7.3
2017-Oct-20 07:59N 01°11' E 103°31'1 1.1
2017-Oct-20 07:30N 01°11' E 103°30'3 5.4
2017-Oct-20 07:01N 01°10' E 103°28'712.1
2017-Oct-20 06:27N 01°14' E 103°22'  
Track history (hours):
 
Tides and Currents Weather Stations Pressure Air Temp Water Temp Dewpoint Dewpoint Depression Visibility Wind Speed Wind Dir Waves Ship Positions

Manila Express

Last reported at 2017-Oct-20 21:42 UTC. Time now 2017-Oct-23 08:06 UTC.
Position N 01°15' E 104°03'.

Length 260 m; draft 8.4 m.

Type: Cargo ship. MMSI: 477830800.

Date/timePositionNaut miles runAvg speedWind from/ knotsBaromVisibWave heightAir tempDewpointWater temp
2017-Oct-20 21:42N 01°15' E 104°03'419.1
2017-Oct-20 21:30N 01°14' E 103°59'918.2
2017-Oct-20 21:00N 01°11' E 103°50'4 8.1
2017-Oct-20 20:30N 01°13' E 103°47'2 4.1
2017-Oct-20 19:55N 01°16' E 103°47'0 0.0
2017-Oct-20 19:25N 01°16' E 103°47'0 0.0
2017-Oct-20 18:58N 01°16' E 103°47'0 0.0
2017-Oct-20 18:28N 01°16' E 103°47'0 0.0
2017-Oct-20 17:58N 01°16' E 103°47'0 0.0
2017-Oct-20 17:22N 01°16' E 103°47'0 0.0
2017-Oct-20 16:58N 01°16' E 103°47'0 0.0
2017-Oct-20 16:28N 01°16' E 103°47'0 0.0
2017-Oct-20 15:55N 01°16' E 103°47'0 0.0
2017-Oct-20 15:25N 01°16' E 103°47'0 0.0
2017-Oct-20 14:58N 01°16' E 103°47'0 0.0
2017-Oct-20 14:25N 01°16' E 103°47'0 0.0
2017-Oct-20 13:19N 01°16' E 103°47'0 0.0
2017-Oct-20 12:46N 01°16' E 103°47'0 0.0
2017-Oct-20 12:28N 01°16' E 103°47'0 0.0
2017-Oct-20 11:58N 01°16' E 103°47'0 0.0
2017-Oct-20 11:25N 01°16' E 103°47'0 0.9
2017-Oct-20 10:59N 01°15' E 103°48'1 2.1
2017-Oct-20 10:30N 01°15' E 103°47'3 6.3
2017-Oct-20 10:00N 01°14' E 103°44'5 9.5
2017-Oct-20 09:30N 01°12' E 103°40'3 6.7
2017-Oct-20 08:59N 01°13' E 103°36'2 3.6
2017-Oct-20 08:30N 01°12' E 103°35'4 7.3
2017-Oct-20 07:59N 01°11' E 103°31'1 1.1
2017-Oct-20 07:30N 01°11' E 103°30'3 5.4
2017-Oct-20 07:01N 01°10' E 103°28'712.1
2017-Oct-20 06:27N 01°14' E 103°22'  

Dump ship's entire track history